Shin Mei Maru — JG5617 — position and weather

sailwx.info

Track history (hours):
 
Tides and Currents Weather Stations Pressure Air Temp Water Temp Dewpoint Dewpoint Depression Visibility Wind Speed Wind Dir Waves Ship Positions

Shin Mei Maru

Last reported at 2017-Mar-23 11:13 UTC. Time now 2017-Mar-24 20:04 UTC.
Position N 33°55' E 134°60'.

Length 160 m; draft 6.8 m.

Type: Cargo ship. MMSI: 431100922.

Date/timePositionNaut miles runAvg speedWind from/ knotsBaromVisibWave heightAir tempDewpointWater temp
2017-Mar-23 11:13N 33°55' E 134°60'1319.7
2017-Mar-23 10:34N 34°08' E 134°59'1818.2
2017-Mar-23 09:33N 34°25' E 135°05'1818.3
2017-Mar-23 08:33N 34°36' E 135°22'2 1.9
2017-Mar-23 07:31N 34°37' E 135°25'0 0.0
2017-Mar-23 06:31N 34°37' E 135°25'0 0.0
2017-Mar-23 05:25N 34°37' E 135°25'0 0.0
2017-Mar-23 04:31N 34°37' E 135°25'0 0.0
2017-Mar-23 03:25N 34°37' E 135°25'0 0.0
2017-Mar-23 02:31N 34°37' E 135°25'0 0.0
2017-Mar-23 01:31N 34°37' E 135°25'1 0.9
2017-Mar-23 00:33N 34°36' E 135°24'1817.4
2017-Mar-22 23:33N 34°25' E 135°08'1616.6
2017-Mar-22 22:34N 34°10' E 135°00'22315.8
2017-Mar-22 08:24N 34°54' E 139°26'1720.1
2017-Mar-22 07:33N 35°05' E 139°41'1414.3
2017-Mar-22 06:34N 35°19' E 139°43'1515.2
2017-Mar-22 05:34N 35°34' E 139°50'5 5.1
2017-Mar-22 04:32N 35°38' E 139°46'0 0.0
2017-Mar-22 03:23N 35°38' E 139°46'0 0.0
2017-Mar-22 02:32N 35°38' E 139°46'0 0.0
2017-Mar-22 01:29N 35°38' E 139°46'0 0.0
2017-Mar-22 00:32N 35°38' E 139°46'0 0.0
2017-Mar-21 23:23N 35°38' E 139°46'0 0.0
2017-Mar-21 22:32N 35°38' E 139°46'4 4.5
2017-Mar-21 21:34N 35°34' E 139°49'1413.5
2017-Mar-21 20:33N 35°21' E 139°45'1313.3
2017-Mar-21 19:33N 35°08' E 139°46'1515.2
2017-Mar-21 18:33N 34°53' E 139°49'  
2017-Mar-17 18:25N 34°54' E 140°05'1618.9
2017-Mar-17 17:33N 34°46' E 139°47'243 8.1
2017-Mar-16 11:33N 34°03' E 134°58'1818.3
2017-Mar-16 10:32N 34°21' E 134°60'1818.5
2017-Mar-16 09:33N 34°33' E 135°17'8 5.8
2017-Mar-16 08:13N 34°37' E 135°25'0 0.0
2017-Mar-16 07:13N 34°37' E 135°25'0 0.0
2017-Mar-16 06:31N 34°37' E 135°25'0 0.0
2017-Mar-16 01:25N 34°37' E 135°25'5 6.1
2017-Mar-16 00:33N 34°34' E 135°19'1919.7
2017-Mar-15 23:33N 34°20' E 135°03'2018.9
2017-Mar-15 22:31N 34°00' E 135°00'22616.9
2017-Mar-15 09:12N 34°55' E 139°26'1320.3
2017-Mar-15 08:33N 35°03' E 139°38'1515.2
2017-Mar-15 07:33N 35°18' E 139°44'1414.2
2017-Mar-15 06:33N 35°31' E 139°51'8 8.2
2017-Mar-15 05:33N 35°38' E 139°46'0 0.0
2017-Mar-15 04:31N 35°38' E 139°46'0 0.0
2017-Mar-15 03:28N 35°38' E 139°46'0 0.0
2017-Mar-15 02:25N 35°38' E 139°46'0 0.0
2017-Mar-15 01:31N 35°38' E 139°46'0 0.0
2017-Mar-15 00:31N 35°38' E 139°46'0 0.0
2017-Mar-14 23:31N 35°38' E 139°46'0 0.0
2017-Mar-14 22:31N 35°38' E 139°46'5 4.8
2017-Mar-14 21:34N 35°34' E 139°49'1413.9
2017-Mar-14 20:33N 35°21' E 139°45'1414.0
2017-Mar-14 19:33N 35°07' E 139°47'1514.9
2017-Mar-14 18:33N 34°52' E 139°50'  
Track history (hours):
 
Tides and Currents Weather Stations Pressure Air Temp Water Temp Dewpoint Dewpoint Depression Visibility Wind Speed Wind Dir Waves Ship Positions

Shin Mei Maru

Last reported at 2017-Mar-23 11:13 UTC. Time now 2017-Mar-24 20:04 UTC.
Position N 33°55' E 134°60'.

Length 160 m; draft 6.8 m.

Type: Cargo ship. MMSI: 431100922.

Date/timePositionNaut miles runAvg speedWind from/ knotsBaromVisibWave heightAir tempDewpointWater temp
2017-Mar-23 11:13N 33°55' E 134°60'1319.7
2017-Mar-23 10:34N 34°08' E 134°59'1818.2
2017-Mar-23 09:33N 34°25' E 135°05'1818.3
2017-Mar-23 08:33N 34°36' E 135°22'2 1.9
2017-Mar-23 07:31N 34°37' E 135°25'0 0.0
2017-Mar-23 06:31N 34°37' E 135°25'0 0.0
2017-Mar-23 05:25N 34°37' E 135°25'0 0.0
2017-Mar-23 04:31N 34°37' E 135°25'0 0.0
2017-Mar-23 03:25N 34°37' E 135°25'0 0.0
2017-Mar-23 02:31N 34°37' E 135°25'0 0.0
2017-Mar-23 01:31N 34°37' E 135°25'1 0.9
2017-Mar-23 00:33N 34°36' E 135°24'1817.4
2017-Mar-22 23:33N 34°25' E 135°08'1616.6
2017-Mar-22 22:34N 34°10' E 135°00'22315.8
2017-Mar-22 08:24N 34°54' E 139°26'1720.1
2017-Mar-22 07:33N 35°05' E 139°41'1414.3
2017-Mar-22 06:34N 35°19' E 139°43'1515.2
2017-Mar-22 05:34N 35°34' E 139°50'5 5.1
2017-Mar-22 04:32N 35°38' E 139°46'0 0.0
2017-Mar-22 03:23N 35°38' E 139°46'0 0.0
2017-Mar-22 02:32N 35°38' E 139°46'0 0.0
2017-Mar-22 01:29N 35°38' E 139°46'0 0.0
2017-Mar-22 00:32N 35°38' E 139°46'0 0.0
2017-Mar-21 23:23N 35°38' E 139°46'0 0.0
2017-Mar-21 22:32N 35°38' E 139°46'4 4.5
2017-Mar-21 21:34N 35°34' E 139°49'1413.5
2017-Mar-21 20:33N 35°21' E 139°45'1313.3
2017-Mar-21 19:33N 35°08' E 139°46'1515.2
2017-Mar-21 18:33N 34°53' E 139°49'  
2017-Mar-17 18:25N 34°54' E 140°05'1618.9
2017-Mar-17 17:33N 34°46' E 139°47'243 8.1
2017-Mar-16 11:33N 34°03' E 134°58'1818.3
2017-Mar-16 10:32N 34°21' E 134°60'1818.5
2017-Mar-16 09:33N 34°33' E 135°17'8 5.8
2017-Mar-16 08:13N 34°37' E 135°25'0 0.0
2017-Mar-16 07:13N 34°37' E 135°25'0 0.0
2017-Mar-16 06:31N 34°37' E 135°25'0 0.0
2017-Mar-16 01:25N 34°37' E 135°25'5 6.1
2017-Mar-16 00:33N 34°34' E 135°19'1919.7
2017-Mar-15 23:33N 34°20' E 135°03'2018.9
2017-Mar-15 22:31N 34°00' E 135°00'22616.9
2017-Mar-15 09:12N 34°55' E 139°26'1320.3
2017-Mar-15 08:33N 35°03' E 139°38'1515.2
2017-Mar-15 07:33N 35°18' E 139°44'1414.2
2017-Mar-15 06:33N 35°31' E 139°51'8 8.2
2017-Mar-15 05:33N 35°38' E 139°46'0 0.0
2017-Mar-15 04:31N 35°38' E 139°46'0 0.0
2017-Mar-15 03:28N 35°38' E 139°46'0 0.0
2017-Mar-15 02:25N 35°38' E 139°46'0 0.0
2017-Mar-15 01:31N 35°38' E 139°46'0 0.0
2017-Mar-15 00:31N 35°38' E 139°46'0 0.0
2017-Mar-14 23:31N 35°38' E 139°46'0 0.0
2017-Mar-14 22:31N 35°38' E 139°46'5 4.8
2017-Mar-14 21:34N 35°34' E 139°49'1413.9
2017-Mar-14 20:33N 35°21' E 139°45'1414.0
2017-Mar-14 19:33N 35°07' E 139°47'1514.9
2017-Mar-14 18:33N 34°52' E 139°50'  

Dump ship's entire track history